Ebroborg — PCGH — position and weather

sailwx.info

Track history (hours):
 
Tides and Currents Weather Stations Pressure Air Temp Water Temp Dewpoint Dewpoint Depression Visibility Wind Speed Wind Dir Waves Ship Positions

Ebroborg

Last reported at 2017-Sep-13 08:20 UTC. Time now 2017-Sep-25 00:48 UTC.
Position N 45°14' W 074°09'.
Warning: this ship's position is 11 days out of date.

Length 137 m; draft 8.1 m.

Type: Cargo ship. MMSI: 245952000.

Date/timePositionNaut miles runAvg speedWind from/ knotsBaromVisibWave heightAir tempDewpointWater temp
2017-Sep-13 08:20N 45°14' W 074°09'5 8.8
2017-Sep-13 07:49N 45°13' W 074°02'3 9.4
2017-Sep-13 07:30N 45°15' W 073°59'4 7.9
2017-Sep-13 06:58N 45°18' W 073°56'0 0.8
2017-Sep-13 06:28N 45°19' W 073°55'0 0.9
2017-Sep-13 05:58N 45°19' W 073°55'1 1.9
2017-Sep-13 05:31N 45°20' W 073°55'4 8.5
2017-Sep-13 05:00N 45°22' W 073°50'5 9.4
2017-Sep-13 04:31N 45°24' W 073°44'3 6.6
2017-Sep-13 04:01N 45°24' W 073°39'3 6.3
2017-Sep-13 03:31N 45°24' W 073°35'1 1.4
2017-Sep-13 02:58N 45°24' W 073°33'2 4.7
2017-Sep-13 02:30N 45°25' W 073°30'3 5.1
2017-Sep-13 01:52N 45°28' W 073°30'2 1.9
2017-Sep-13 01:00N 45°30' W 073°31'  
2017-Sep-09 00:31N 51°04' W 057°38'  
Track history (hours):
 
Tides and Currents Weather Stations Pressure Air Temp Water Temp Dewpoint Dewpoint Depression Visibility Wind Speed Wind Dir Waves Ship Positions

Ebroborg

Last reported at 2017-Sep-13 08:20 UTC. Time now 2017-Sep-25 00:48 UTC.
Position N 45°14' W 074°09'.
Warning: this ship's position is 11 days out of date.

Length 137 m; draft 8.1 m.

Type: Cargo ship. MMSI: 245952000.

Date/timePositionNaut miles runAvg speedWind from/ knotsBaromVisibWave heightAir tempDewpointWater temp
2017-Sep-13 08:20N 45°14' W 074°09'5 8.8
2017-Sep-13 07:49N 45°13' W 074°02'3 9.4
2017-Sep-13 07:30N 45°15' W 073°59'4 7.9
2017-Sep-13 06:58N 45°18' W 073°56'0 0.8
2017-Sep-13 06:28N 45°19' W 073°55'0 0.9
2017-Sep-13 05:58N 45°19' W 073°55'1 1.9
2017-Sep-13 05:31N 45°20' W 073°55'4 8.5
2017-Sep-13 05:00N 45°22' W 073°50'5 9.4
2017-Sep-13 04:31N 45°24' W 073°44'3 6.6
2017-Sep-13 04:01N 45°24' W 073°39'3 6.3
2017-Sep-13 03:31N 45°24' W 073°35'1 1.4
2017-Sep-13 02:58N 45°24' W 073°33'2 4.7
2017-Sep-13 02:30N 45°25' W 073°30'3 5.1
2017-Sep-13 01:52N 45°28' W 073°30'2 1.9
2017-Sep-13 01:00N 45°30' W 073°31'  
2017-Sep-09 00:31N 51°04' W 057°38'  

Dump ship's entire track history